sensor_id;sensor_type;location;lat;lon;timestamp;temperature;humidity
68912;SHT31;55953;51.650;-0.522;2022-10-04T00:01:53;14.97;81.80
68912;SHT31;55953;51.650;-0.522;2022-10-04T00:04:46;14.91;82.08
68912;SHT31;55953;51.650;-0.522;2022-10-04T00:07:25;14.90;82.37
68912;SHT31;55953;51.650;-0.522;2022-10-04T00:10:01;14.88;82.52
68912;SHT31;55953;51.650;-0.522;2022-10-04T00:12:46;14.91;82.65
68912;SHT31;55953;51.650;-0.522;2022-10-04T00:15:19;14.91;82.72
68912;SHT31;55953;51.650;-0.522;2022-10-04T00:25:54;14.91;82.70
68912;SHT31;55953;51.650;-0.522;2022-10-04T00:31:13;14.90;82.82
68912;SHT31;55953;51.650;-0.522;2022-10-04T00:36:43;14.87;83.04
68912;SHT31;55953;51.650;-0.522;2022-10-04T00:50:16;14.92;83.11
68912;SHT31;55953;51.650;-0.522;2022-10-04T00:53:19;14.91;83.37
68912;SHT31;55953;51.650;-0.522;2022-10-04T00:56:09;14.92;83.35
68912;SHT31;55953;51.650;-0.522;2022-10-04T01:01:26;14.95;83.58
68912;SHT31;55953;51.650;-0.522;2022-10-04T01:03:56;15.08;83.47
68912;SHT31;55953;51.650;-0.522;2022-10-04T01:06:28;15.16;82.99
68912;SHT31;55953;51.650;-0.522;2022-10-04T01:09:04;15.11;83.08
68912;SHT31;55953;51.650;-0.522;2022-10-04T01:11:37;15.11;83.13
68912;SHT31;55953;51.650;-0.522;2022-10-04T01:14:18;15.14;83.17
68912;SHT31;55953;51.650;-0.522;2022-10-04T01:16:57;15.15;83.10
68912;SHT31;55953;51.650;-0.522;2022-10-04T01:21:58;15.09;83.33
68912;SHT31;55953;51.650;-0.522;2022-10-04T01:24:55;15.04;83.55
68912;SHT31;55953;51.650;-0.522;2022-10-04T01:27:31;15.02;83.69
68912;SHT31;55953;51.650;-0.522;2022-10-04T01:30:19;15.02;83.67
68912;SHT31;55953;51.650;-0.522;2022-10-04T01:32:47;15.02;83.61
68912;SHT31;55953;51.650;-0.522;2022-10-04T01:35:15;15.09;83.61
68912;SHT31;55953;51.650;-0.522;2022-10-04T01:37:45;15.10;83.41
68912;SHT31;55953;51.650;-0.522;2022-10-04T01:40:13;15.07;83.53
68912;SHT31;55953;51.650;-0.522;2022-10-04T01:42:43;15.08;83.62
68912;SHT31;55953;51.650;-0.522;2022-10-04T01:45:28;15.07;83.65
68912;SHT31;55953;51.650;-0.522;2022-10-04T01:48:09;15.07;83.71
68912;SHT31;55953;51.650;-0.522;2022-10-04T01:50:43;15.06;83.77
68912;SHT31;55953;51.650;-0.522;2022-10-04T01:54:08;15.11;83.78
68912;SHT31;55953;51.650;-0.522;2022-10-04T01:56:52;15.16;83.75
68912;SHT31;55953;51.650;-0.522;2022-10-04T01:59:36;15.12;83.85
68912;SHT31;55953;51.650;-0.522;2022-10-04T02:02:18;15.16;83.66
68912;SHT31;55953;51.650;-0.522;2022-10-04T02:04:51;15.19;83.71
68912;SHT31;55953;51.650;-0.522;2022-10-04T02:07:24;15.24;83.59
68912;SHT31;55953;51.650;-0.522;2022-10-04T02:09:59;15.19;83.55
68912;SHT31;55953;51.650;-0.522;2022-10-04T02:12:34;15.19;83.76
68912;SHT31;55953;51.650;-0.522;2022-10-04T02:15:06;15.21;83.72
68912;SHT31;55953;51.650;-0.522;2022-10-04T02:17:39;15.24;83.70
68912;SHT31;55953;51.650;-0.522;2022-10-04T02:20:14;15.22;83.70
68912;SHT31;55953;51.650;-0.522;2022-10-04T02:22:48;15.22;83.76
68912;SHT31;55953;51.650;-0.522;2022-10-04T02:25:23;15.15;83.86
68912;SHT31;55953;51.650;-0.522;2022-10-04T02:27:54;15.13;84.04
68912;SHT31;55953;51.650;-0.522;2022-10-04T02:30:23;15.11;84.00
68912;SHT31;55953;51.650;-0.522;2022-10-04T02:32:52;15.06;84.14
68912;SHT31;55953;51.650;-0.522;2022-10-04T02:43:51;15.11;84.36
68912;SHT31;55953;51.650;-0.522;2022-10-04T02:46:37;15.12;84.41
68912;SHT31;55953;51.650;-0.522;2022-10-04T02:52:52;15.14;84.74
68912;SHT31;55953;51.650;-0.522;2022-10-04T02:57:54;15.13;84.68
68912;SHT31;55953;51.650;-0.522;2022-10-04T03:00:24;15.17;84.54
68912;SHT31;55953;51.650;-0.522;2022-10-04T03:03:39;15.13;84.40
68912;SHT31;55953;51.650;-0.522;2022-10-04T03:05:58;15.07;84.61
68912;SHT31;55953;51.650;-0.522;2022-10-04T03:08:52;15.09;84.81
68912;SHT31;55953;51.650;-0.522;2022-10-04T03:11:29;15.09;84.80
68912;SHT31;55953;51.650;-0.522;2022-10-04T03:14:05;15.07;84.89
68912;SHT31;55953;51.650;-0.522;2022-10-04T03:16:41;15.14;85.03
68912;SHT31;55953;51.650;-0.522;2022-10-04T03:19:11;15.14;84.90
68912;SHT31;55953;51.650;-0.522;2022-10-04T03:21:44;15.13;84.95
68912;SHT31;55953;51.650;-0.522;2022-10-04T03:25:02;15.16;84.94
68912;SHT31;55953;51.650;-0.522;2022-10-04T03:27:21;15.21;84.91
68912;SHT31;55953;51.650;-0.522;2022-10-04T03:30:00;15.16;84.97
68912;SHT31;55953;51.650;-0.522;2022-10-04T03:32:29;15.11;85.18
68912;SHT31;55953;51.650;-0.522;2022-10-04T03:34:59;15.11;85.23
68912;SHT31;55953;51.650;-0.522;2022-10-04T03:37:35;15.13;85.12
68912;SHT31;55953;51.650;-0.522;2022-10-04T03:40:07;15.10;85.19
68912;SHT31;55953;51.650;-0.522;2022-10-04T03:42:36;15.11;85.21
68912;SHT31;55953;51.650;-0.522;2022-10-04T03:45:07;15.10;85.15
68912;SHT31;55953;51.650;-0.522;2022-10-04T03:47:43;15.09;85.28
68912;SHT31;55953;51.650;-0.522;2022-10-04T03:52:56;15.10;85.33
68912;SHT31;55953;51.650;-0.522;2022-10-04T03:55:31;15.08;85.53
68912;SHT31;55953;51.650;-0.522;2022-10-04T03:58:05;15.10;85.45
68912;SHT31;55953;51.650;-0.522;2022-10-04T04:00:39;15.11;85.38
68912;SHT31;55953;51.650;-0.522;2022-10-04T04:03:20;15.11;85.49
68912;SHT31;55953;51.650;-0.522;2022-10-04T04:05:50;15.08;85.40
68912;SHT31;55953;51.650;-0.522;2022-10-04T04:11:04;15.04;85.55
68912;SHT31;55953;51.650;-0.522;2022-10-04T04:16:35;15.01;85.50
68912;SHT31;55953;51.650;-0.522;2022-10-04T04:19:11;14.95;85.72
68912;SHT31;55953;51.650;-0.522;2022-10-04T04:21:43;14.91;85.78
68912;SHT31;55953;51.650;-0.522;2022-10-04T04:24:26;14.89;85.75
68912;SHT31;55953;51.650;-0.522;2022-10-04T04:26:59;14.84;85.93
68912;SHT31;55953;51.650;-0.522;2022-10-04T04:34:57;14.81;85.67
68912;SHT31;55953;51.650;-0.522;2022-10-04T04:37:34;14.77;85.66
68912;SHT31;55953;51.650;-0.522;2022-10-04T04:40:17;14.72;85.71
68912;SHT31;55953;51.650;-0.522;2022-10-04T04:42:49;14.61;85.81
68912;SHT31;55953;51.650;-0.522;2022-10-04T04:45:20;14.50;86.04
68912;SHT31;55953;51.650;-0.522;2022-10-04T04:47:52;14.46;86.26
68912;SHT31;55953;51.650;-0.522;2022-10-04T04:50:24;14.43;86.23
68912;SHT31;55953;51.650;-0.522;2022-10-04T04:53:06;14.42;86.28
68912;SHT31;55953;51.650;-0.522;2022-10-04T04:55:43;14.40;86.35
68912;SHT31;55953;51.650;-0.522;2022-10-04T04:58:40;14.40;86.35
68912;SHT31;55953;51.650;-0.522;2022-10-04T05:06:40;14.42;86.23
68912;SHT31;55953;51.650;-0.522;2022-10-04T05:09:28;14.46;86.11
68912;SHT31;55953;51.650;-0.522;2022-10-04T05:12:05;14.49;85.96
68912;SHT31;55953;51.650;-0.522;2022-10-04T05:14:51;14.52;85.77
68912;SHT31;55953;51.650;-0.522;2022-10-04T05:17:22;14.55;85.58
68912;SHT31;55953;51.650;-0.522;2022-10-04T05:19:57;14.60;85.31
68912;SHT31;55953;51.650;-0.522;2022-10-04T05:22:28;14.60;85.13
68912;SHT31;55953;51.650;-0.522;2022-10-04T05:25:03;14.59;85.00
68912;SHT31;55953;51.650;-0.522;2022-10-04T05:27:41;14.59;84.71
68912;SHT31;55953;51.650;-0.522;2022-10-04T05:33:06;14.62;83.88
68912;SHT31;55953;51.650;-0.522;2022-10-04T05:38:58;14.72;83.59
68912;SHT31;55953;51.650;-0.522;2022-10-04T05:44:23;14.77;83.36
68912;SHT31;55953;51.650;-0.522;2022-10-04T05:47:11;14.79;83.13
68912;SHT31;55953;51.650;-0.522;2022-10-04T05:49:44;14.76;82.94
68912;SHT31;55953;51.650;-0.522;2022-10-04T05:52:15;14.72;82.44
68912;SHT31;55953;51.650;-0.522;2022-10-04T06:03:22;14.75;82.40
68912;SHT31;55953;51.650;-0.522;2022-10-04T06:06:30;14.76;82.32
68912;SHT31;55953;51.650;-0.522;2022-10-04T06:12:01;14.75;82.16
68912;SHT31;55953;51.650;-0.522;2022-10-04T06:14:47;14.73;82.21
68912;SHT31;55953;51.650;-0.522;2022-10-04T06:17:50;14.74;82.10
68912;SHT31;55953;51.650;-0.522;2022-10-04T06:20:49;14.76;81.99
68912;SHT31;55953;51.650;-0.522;2022-10-04T06:23:34;14.77;81.87
68912;SHT31;55953;51.650;-0.522;2022-10-04T06:26:11;14.76;81.88
68912;SHT31;55953;51.650;-0.522;2022-10-04T06:28:47;14.76;81.79
68912;SHT31;55953;51.650;-0.522;2022-10-04T06:37:10;14.82;81.60
68912;SHT31;55953;51.650;-0.522;2022-10-04T06:57:28;14.92;81.25
68912;SHT31;55953;51.650;-0.522;2022-10-04T07:02:54;14.95;81.31
68912;SHT31;55953;51.650;-0.522;2022-10-04T07:05:32;14.97;81.20
68912;SHT31;55953;51.650;-0.522;2022-10-04T07:11:02;15.10;80.96
68912;SHT31;55953;51.650;-0.522;2022-10-04T07:27:13;15.39;80.13
68912;SHT31;55953;51.650;-0.522;2022-10-04T07:29:51;15.41;80.22
68912;SHT31;55953;51.650;-0.522;2022-10-04T07:32:26;15.44;80.17
68912;SHT31;55953;51.650;-0.522;2022-10-04T07:35:23;15.44;80.10
68912;SHT31;55953;51.650;-0.522;2022-10-04T07:41:04;15.41;80.07
68912;SHT31;55953;51.650;-0.522;2022-10-04T07:43:45;15.38;80.21
68912;SHT31;55953;51.650;-0.522;2022-10-04T07:49:20;15.34;80.20
68912;SHT31;55953;51.650;-0.522;2022-10-04T07:57:39;15.41;80.24
68912;SHT31;55953;51.650;-0.522;2022-10-04T08:00:36;15.49;80.10
68912;SHT31;55953;51.650;-0.522;2022-10-04T08:03:35;15.54;79.63
68912;SHT31;55953;51.650;-0.522;2022-10-04T08:06:57;15.60;79.12
68912;SHT31;55953;51.650;-0.522;2022-10-04T08:13:13;15.75;78.81
68912;SHT31;55953;51.650;-0.522;2022-10-04T08:15:57;15.79;78.72
68912;SHT31;55953;51.650;-0.522;2022-10-04T08:21:16;15.88;78.39
68912;SHT31;55953;51.650;-0.522;2022-10-04T08:24:03;15.84;78.19
68912;SHT31;55953;51.650;-0.522;2022-10-04T08:30:16;15.76;78.53
68912;SHT31;55953;51.650;-0.522;2022-10-04T08:35:47;15.66;78.69
68912;SHT31;55953;51.650;-0.522;2022-10-04T08:41:25;15.70;78.55
68912;SHT31;55953;51.650;-0.522;2022-10-04T08:44:51;15.83;78.24
68912;SHT31;55953;51.650;-0.522;2022-10-04T08:51:15;16.02;78.01
68912;SHT31;55953;51.650;-0.522;2022-10-04T08:57:04;16.33;77.58
68912;SHT31;55953;51.650;-0.522;2022-10-04T09:17:52;16.76;75.06
68912;SHT31;55953;51.650;-0.522;2022-10-04T09:44:13;16.95;74.92
68912;SHT31;55953;51.650;-0.522;2022-10-04T09:47:25;17.04;74.86
68912;SHT31;55953;51.650;-0.522;2022-10-04T09:50:32;17.06;74.27
68912;SHT31;55953;51.650;-0.522;2022-10-04T10:10:47;16.99;74.93
68912;SHT31;55953;51.650;-0.522;2022-10-04T10:32:24;17.43;74.32
68912;SHT31;55953;51.650;-0.522;2022-10-04T10:51:15;18.49;71.24
68912;SHT31;55953;51.650;-0.522;2022-10-04T10:57:22;18.15;72.22
68912;SHT31;55953;51.650;-0.522;2022-10-04T11:06:46;17.95;72.88
68912;SHT31;55953;51.650;-0.522;2022-10-04T11:48:20;18.44;71.09
68912;SHT31;55953;51.650;-0.522;2022-10-04T11:57:25;18.30;71.69
68912;SHT31;55953;51.650;-0.522;2022-10-04T12:21:15;18.08;73.61
68912;SHT31;55953;51.650;-0.522;2022-10-04T12:41:35;18.06;75.24
68912;SHT31;55953;51.650;-0.522;2022-10-04T12:53:16;18.20;75.29
68912;SHT31;55953;51.650;-0.522;2022-10-04T12:59:15;18.24;75.41
68912;SHT31;55953;51.650;-0.522;2022-10-04T13:31:44;17.44;80.55
68912;SHT31;55953;51.650;-0.522;2022-10-04T13:45:38;18.39;78.09
68912;SHT31;55953;51.650;-0.522;2022-10-04T13:48:52;18.39;77.16
68912;SHT31;55953;51.650;-0.522;2022-10-04T13:54:49;18.39;76.92
68912;SHT31;55953;51.650;-0.522;2022-10-04T14:06:55;18.17;76.23
68912;SHT31;55953;51.650;-0.522;2022-10-04T14:15:32;18.19;76.79
68912;SHT31;55953;51.650;-0.522;2022-10-04T14:27:28;18.17;74.17
68912;SHT31;55953;51.650;-0.522;2022-10-04T14:31:01;18.07;74.28
68912;SHT31;55953;51.650;-0.522;2022-10-04T14:35:56;18.17;74.42
68912;SHT31;55953;51.650;-0.522;2022-10-04T14:38:45;18.32;74.07
68912;SHT31;55953;51.650;-0.522;2022-10-04T14:44:48;18.47;72.79
68912;SHT31;55953;51.650;-0.522;2022-10-04T14:53:40;18.29;71.85
68912;SHT31;55953;51.650;-0.522;2022-10-04T15:02:03;18.40;70.99
68912;SHT31;55953;51.650;-0.522;2022-10-04T15:07:40;18.31;70.88
68912;SHT31;55953;51.650;-0.522;2022-10-04T15:10:51;18.35;71.09
68912;SHT31;55953;51.650;-0.522;2022-10-04T15:13:33;18.32;71.26
68912;SHT31;55953;51.650;-0.522;2022-10-04T15:16:12;18.27;71.08
68912;SHT31;55953;51.650;-0.522;2022-10-04T15:36:13;18.49;71.31
68912;SHT31;55953;51.650;-0.522;2022-10-04T15:38:56;18.55;70.71
68912;SHT31;55953;51.650;-0.522;2022-10-04T16:08:23;17.75;72.75
68912;SHT31;55953;51.650;-0.522;2022-10-04T16:26:08;17.43;74.04
68912;SHT31;55953;51.650;-0.522;2022-10-04T16:31:42;17.36;74.28
68912;SHT31;55953;51.650;-0.522;2022-10-04T16:42:55;17.16;74.87
68912;SHT31;55953;51.650;-0.522;2022-10-04T16:48:47;17.07;75.37
68912;SHT31;55953;51.650;-0.522;2022-10-04T16:59:43;16.92;76.30
68912;SHT31;55953;51.650;-0.522;2022-10-04T17:05:39;16.89;76.50
68912;SHT31;55953;51.650;-0.522;2022-10-04T17:08:21;16.87;76.62
68912;SHT31;55953;51.650;-0.522;2022-10-04T17:17:20;16.78;77.42
68912;SHT31;55953;51.650;-0.522;2022-10-04T17:20:23;16.74;77.65
68912;SHT31;55953;51.650;-0.522;2022-10-04T17:32:53;16.62;78.53
68912;SHT31;55953;51.650;-0.522;2022-10-04T17:45:43;16.49;79.06
68912;SHT31;55953;51.650;-0.522;2022-10-04T17:48:20;16.45;79.32
68912;SHT31;55953;51.650;-0.522;2022-10-04T17:51:37;16.43;79.29
68912;SHT31;55953;51.650;-0.522;2022-10-04T17:54:31;16.41;79.47
68912;SHT31;55953;51.650;-0.522;2022-10-04T18:00:11;16.40;79.58
68912;SHT31;55953;51.650;-0.522;2022-10-04T18:05:51;16.42;79.59
68912;SHT31;55953;51.650;-0.522;2022-10-04T18:11:06;16.43;79.56
68912;SHT31;55953;51.650;-0.522;2022-10-04T18:13:49;16.41;79.71
68912;SHT31;55953;51.650;-0.522;2022-10-04T18:19:29;16.37;79.73
68912;SHT31;55953;51.650;-0.522;2022-10-04T18:22:14;16.37;79.72
68912;SHT31;55953;51.650;-0.522;2022-10-04T18:25:10;16.36;79.73
68912;SHT31;55953;51.650;-0.522;2022-10-04T18:28:18;16.34;79.83
68912;SHT31;55953;51.650;-0.522;2022-10-04T18:33:21;16.32;79.85
68912;SHT31;55953;51.650;-0.522;2022-10-04T18:36:04;16.31;79.88
68912;SHT31;55953;51.650;-0.522;2022-10-04T18:38:44;16.31;79.89
68912;SHT31;55953;51.650;-0.522;2022-10-04T18:41:27;16.28;79.93
68912;SHT31;55953;51.650;-0.522;2022-10-04T18:44:27;16.28;79.88
68912;SHT31;55953;51.650;-0.522;2022-10-04T18:47:17;16.25;80.03
68912;SHT31;55953;51.650;-0.522;2022-10-04T19:07:38;16.13;80.29
68912;SHT31;55953;51.650;-0.522;2022-10-04T19:10:32;16.10;80.29
68912;SHT31;55953;51.650;-0.522;2022-10-04T19:13:43;16.05;80.47
68912;SHT31;55953;51.650;-0.522;2022-10-04T19:19:39;15.98;80.60
68912;SHT31;55953;51.650;-0.522;2022-10-04T19:22:20;15.95;80.72
68912;SHT31;55953;51.650;-0.522;2022-10-04T19:27:33;15.89;80.84
68912;SHT31;55953;51.650;-0.522;2022-10-04T19:42:27;15.88;81.00
68912;SHT31;55953;51.650;-0.522;2022-10-04T19:45:31;15.92;80.95
68912;SHT31;55953;51.650;-0.522;2022-10-04T19:48:48;15.93;81.07
68912;SHT31;55953;51.650;-0.522;2022-10-04T19:54:06;15.94;81.03
68912;SHT31;55953;51.650;-0.522;2022-10-04T19:56:44;15.95;81.04
68912;SHT31;55953;51.650;-0.522;2022-10-04T19:59:16;15.96;80.96
68912;SHT31;55953;51.650;-0.522;2022-10-04T20:02:06;15.99;81.04
68912;SHT31;55953;51.650;-0.522;2022-10-04T20:04:39;16.02;80.93
68912;SHT31;55953;51.650;-0.522;2022-10-04T20:07:30;16.05;80.98
68912;SHT31;55953;51.650;-0.522;2022-10-04T20:13:04;16.09;80.79
68912;SHT31;55953;51.650;-0.522;2022-10-04T20:15:52;16.12;80.81
68912;SHT31;55953;51.650;-0.522;2022-10-04T20:26:04;16.16;80.67
68912;SHT31;55953;51.650;-0.522;2022-10-04T20:28:37;16.19;80.60
68912;SHT31;55953;51.650;-0.522;2022-10-04T20:31:10;16.21;80.61
68912;SHT31;55953;51.650;-0.522;2022-10-04T20:37:05;16.25;80.53
68912;SHT31;55953;51.650;-0.522;2022-10-04T20:42:07;16.27;80.44
68912;SHT31;55953;51.650;-0.522;2022-10-04T20:44:47;16.27;80.50
68912;SHT31;55953;51.650;-0.522;2022-10-04T20:47:30;16.29;80.43
68912;SHT31;55953;51.650;-0.522;2022-10-04T20:50:03;16.31;80.34
68912;SHT31;55953;51.650;-0.522;2022-10-04T20:52:56;16.31;80.31
68912;SHT31;55953;51.650;-0.522;2022-10-04T20:55:31;16.30;80.37
68912;SHT31;55953;51.650;-0.522;2022-10-04T21:01:05;16.32;80.24
68912;SHT31;55953;51.650;-0.522;2022-10-04T21:06:59;16.32;80.28
68912;SHT31;55953;51.650;-0.522;2022-10-04T21:09:31;16.31;80.33
68912;SHT31;55953;51.650;-0.522;2022-10-04T21:12:02;16.31;80.35
68912;SHT31;55953;51.650;-0.522;2022-10-04T21:14:33;16.32;80.30
68912;SHT31;55953;51.650;-0.522;2022-10-04T21:17:32;16.33;80.22
68912;SHT31;55953;51.650;-0.522;2022-10-04T21:19:55;16.33;80.17
68912;SHT31;55953;51.650;-0.522;2022-10-04T21:24:58;16.33;80.23
68912;SHT31;55953;51.650;-0.522;2022-10-04T21:27:36;16.34;80.10
68912;SHT31;55953;51.650;-0.522;2022-10-04T21:30:13;16.36;80.07
68912;SHT31;55953;51.650;-0.522;2022-10-04T21:32:44;16.37;79.95
68912;SHT31;55953;51.650;-0.522;2022-10-04T21:35:12;16.39;79.93
68912;SHT31;55953;51.650;-0.522;2022-10-04T21:37:40;16.40;79.93
68912;SHT31;55953;51.650;-0.522;2022-10-04T21:40:09;16.40;79.92
68912;SHT31;55953;51.650;-0.522;2022-10-04T21:42:39;16.42;79.84
68912;SHT31;55953;51.650;-0.522;2022-10-04T21:45:07;16.42;79.84
68912;SHT31;55953;51.650;-0.522;2022-10-04T21:47:35;16.44;79.83
68912;SHT31;55953;51.650;-0.522;2022-10-04T21:50:04;16.46;79.63
68912;SHT31;55953;51.650;-0.522;2022-10-04T21:52:32;16.47;79.59
68912;SHT31;55953;51.650;-0.522;2022-10-04T21:55:00;16.47;79.61
68912;SHT31;55953;51.650;-0.522;2022-10-04T21:57:28;16.47;79.63
68912;SHT31;55953;51.650;-0.522;2022-10-04T22:00:02;16.45;79.70
68912;SHT31;55953;51.650;-0.522;2022-10-04T22:02:38;16.45;79.63
68912;SHT31;55953;51.650;-0.522;2022-10-04T22:05:06;16.44;79.60
68912;SHT31;55953;51.650;-0.522;2022-10-04T22:07:35;16.46;79.48
68912;SHT31;55953;51.650;-0.522;2022-10-04T22:10:03;16.49;79.34
68912;SHT31;55953;51.650;-0.522;2022-10-04T22:12:31;16.51;79.21
68912;SHT31;55953;51.650;-0.522;2022-10-04T22:14:59;16.52;79.25
68912;SHT31;55953;51.650;-0.522;2022-10-04T22:17:27;16.55;79.22
68912;SHT31;55953;51.650;-0.522;2022-10-04T22:19:55;16.54;79.18
68912;SHT31;55953;51.650;-0.522;2022-10-04T22:22:23;16.54;79.09
68912;SHT31;55953;51.650;-0.522;2022-10-04T22:24:51;16.57;79.07
68912;SHT31;55953;51.650;-0.522;2022-10-04T22:27:19;16.56;78.99
68912;SHT31;55953;51.650;-0.522;2022-10-04T22:29:47;16.57;79.01
68912;SHT31;55953;51.650;-0.522;2022-10-04T22:32:25;16.56;78.95
68912;SHT31;55953;51.650;-0.522;2022-10-04T22:34:57;16.58;78.86
68912;SHT31;55953;51.650;-0.522;2022-10-04T22:37:33;16.56;78.78
68912;SHT31;55953;51.650;-0.522;2022-10-04T22:40:00;16.55;78.73
68912;SHT31;55953;51.650;-0.522;2022-10-04T22:42:29;16.57;78.59
68912;SHT31;55953;51.650;-0.522;2022-10-04T22:45:01;16.58;78.42
68912;SHT31;55953;51.650;-0.522;2022-10-04T22:47:32;16.60;78.30
68912;SHT31;55953;51.650;-0.522;2022-10-04T22:50:00;16.63;78.31
68912;SHT31;55953;51.650;-0.522;2022-10-04T22:52:28;16.64;78.15
68912;SHT31;55953;51.650;-0.522;2022-10-04T22:54:56;16.64;78.11
68912;SHT31;55953;51.650;-0.522;2022-10-04T22:57:28;16.63;78.09
68912;SHT31;55953;51.650;-0.522;2022-10-04T22:59:57;16.62;78.00
68912;SHT31;55953;51.650;-0.522;2022-10-04T23:02:28;16.62;77.83
68912;SHT31;55953;51.650;-0.522;2022-10-04T23:05:00;16.61;77.79
68912;SHT31;55953;51.650;-0.522;2022-10-04T23:07:43;16.62;77.71
68912;SHT31;55953;51.650;-0.522;2022-10-04T23:10:13;16.62;77.74
68912;SHT31;55953;51.650;-0.522;2022-10-04T23:12:45;16.63;77.78
68912;SHT31;55953;51.650;-0.522;2022-10-04T23:15:16;16.63;77.76
68912;SHT31;55953;51.650;-0.522;2022-10-04T23:17:50;16.62;77.72
68912;SHT31;55953;51.650;-0.522;2022-10-04T23:20:22;16.63;77.62
68912;SHT31;55953;51.650;-0.522;2022-10-04T23:22:50;16.65;77.73
68912;SHT31;55953;51.650;-0.522;2022-10-04T23:25:25;16.67;77.70
68912;SHT31;55953;51.650;-0.522;2022-10-04T23:28:04;16.67;77.75
68912;SHT31;55953;51.650;-0.522;2022-10-04T23:30:39;16.66;77.90
68912;SHT31;55953;51.650;-0.522;2022-10-04T23:33:18;16.65;78.08
68912;SHT31;55953;51.650;-0.522;2022-10-04T23:35:50;16.66;78.21
68912;SHT31;55953;51.650;-0.522;2022-10-04T23:38:20;16.64;78.31
68912;SHT31;55953;51.650;-0.522;2022-10-04T23:40:51;16.67;78.36
68912;SHT31;55953;51.650;-0.522;2022-10-04T23:43:19;16.66;78.35
68912;SHT31;55953;51.650;-0.522;2022-10-04T23:45:52;16.66;78.32
68912;SHT31;55953;51.650;-0.522;2022-10-04T23:48:26;16.67;78.34
68912;SHT31;55953;51.650;-0.522;2022-10-04T23:50:58;16.62;78.37
68912;SHT31;55953;51.650;-0.522;2022-10-04T23:53:28;16.61;78.25
68912;SHT31;55953;51.650;-0.522;2022-10-04T23:56:03;16.59;78.12
68912;SHT31;55953;51.650;-0.522;2022-10-04T23:58:44;16.61;77.99
